地図

経路データ

SID SEASON NUMBER BASIN SUBBASIN NAME ISO_TIME NATURE LAT LON WMO_WIND WMO_PRES WMO_AGENCY TRACK_TYPE DIST2LAND LANDFALL IFLAG USA_AGENCY USA_ATCF_ID USA_LAT USA_LON USA_RECORD USA_STATUS USA_WIND USA_PRES USA_SSHS USA_R34_NE USA_R34_SE USA_R34_SW USA_R34_NW USA_R50_NE USA_R50_SE USA_R50_SW USA_R50_NW USA_R64_NE USA_R64_SE USA_R64_SW USA_R64_NW USA_POCI USA_ROCI USA_RMW USA_EYE TOKYO_LAT TOKYO_LON TOKYO_GRADE TOKYO_WIND TOKYO_PRES TOKYO_R50_DIR TOKYO_R50_LONG TOKYO_R50_SHORT TOKYO_R30_DIR TOKYO_R30_LONG TOKYO_R30_SHORT TOKYO_LAND CMA_LAT CMA_LON CMA_CAT CMA_WIND CMA_PRES HKO_LAT HKO_LON HKO_CAT HKO_WIND HKO_PRES NEWDELHI_LAT NEWDELHI_LON NEWDELHI_GRADE NEWDELHI_WIND NEWDELHI_PRES NEWDELHI_CI NEWDELHI_DP NEWDELHI_POCI REUNION_LAT REUNION_LON REUNION_TYPE REUNION_WIND REUNION_PRES REUNION_TNUM REUNION_CI REUNION_RMW REUNION_R34_NE REUNION_R34_SE REUNION_R34_SW REUNION_R34_NW REUNION_R50_NE REUNION_R50_SE REUNION_R50_SW REUNION_R50_NW REUNION_R64_NE REUNION_R64_SE REUNION_R64_SW REUNION_R64_NW BOM_LAT BOM_LON BOM_TYPE BOM_WIND BOM_PRES BOM_TNUM BOM_CI BOM_RMW BOM_R34_NE BOM_R34_SE BOM_R34_SW BOM_R34_NW BOM_R50_NE BOM_R50_SE BOM_R50_SW BOM_R50_NW BOM_R64_NE BOM_R64_SE BOM_R64_SW BOM_R64_NW BOM_ROCI BOM_POCI BOM_EYE BOM_POS_METHOD BOM_PRES_METHOD NADI_LAT NADI_LON NADI_CAT NADI_WIND NADI_PRES WELLINGTON_LAT WELLINGTON_LON WELLINGTON_WIND WELLINGTON_PRES DS824_LAT DS824_LON DS824_STAGE DS824_WIND DS824_PRES TD9636_LAT TD9636_LON TD9636_STAGE TD9636_WIND TD9636_PRES TD9635_LAT TD9635_LON TD9635_WIND TD9635_PRES TD9635_ROCI NEUMANN_LAT NEUMANN_LON NEUMANN_CLASS NEUMANN_WIND NEUMANN_PRES MLC_LAT MLC_LON MLC_CLASS MLC_WIND MLC_PRES USA_GUST BOM_GUST BOM_GUST_PER REUNION_GUST REUNION_GUST_PER USA_SEAHGT USA_SEARAD_NE USA_SEARAD_SE USA_SEARAD_SW USA_SEARAD_NW STORM_SPEED STORM_DIR
1913314N12147 1913 60 WP MM NOT_NAMED 1913-11-10 10:00:00 NR 12.4000 147.000 main 1624 1624 __________O___ -1 12.4000 147.000 7 7 283
1913314N12147 1913 60 WP MM NOT_NAMED 1913-11-10 12:00:00 NR 12.4495 146.781 main 1624 1635 __________P___ -1 12.4495 146.781 7 7 284
1913314N12147 1913 60 WP MM NOT_NAMED 1913-11-10 15:00:00 NR 12.5301 146.446 main 1635 1635 __________P___ -1 12.5301 146.446 7 7 285
1913314N12147 1913 60 WP MM NOT_NAMED 1913-11-10 18:00:00 NR 12.6273 146.099 main 1647 1647 __________P___ -1 12.6273 146.099 7 7 288
1913314N12147 1913 60 WP MM NOT_NAMED 1913-11-10 21:00:00 NR 12.7511 145.729 main 1672 1672 __________P___ -1 12.7511 145.729 7 8 290
1913314N12147 1913 60 WP MM NOT_NAMED 1913-11-10 22:00:00 NR 12.8000 145.600 main 1673 1673 __________O___ -1 12.8000 145.600 2 8 292
1913314N12147 1913 60 WP MM NOT_NAMED 1913-11-11 00:00:00 NR 12.9105 145.331 main 1686 1686 __________P___ -1 12.9105 145.331 2 9 294
1913314N12147 1913 60 WP MM NOT_NAMED 1913-11-11 03:00:00 NR 13.1015 144.909 main 1713 1713 __________P___ -1 13.1015 144.909 2 9 296
1913314N12147 1913 60 WP MM NOT_NAMED 1913-11-11 06:00:00 NR 13.3116 144.475 main 1740 1740 __________P___ -1 13.3116 144.475 2 9 297
1913314N12147 1913 60 WP MM NOT_NAMED 1913-11-11 09:00:00 NR 13.5284 144.042 main 1771 1771 __________P___ -1 13.5284 144.042 2 9 297
1913314N12147 1913 60 WP MM NOT_NAMED 1913-11-11 10:00:00 NR 13.6000 143.900 main 1784 1784 __________O___ -1 13.6000 143.900 2 9 296
1913314N12147 1913 60 WP MM NOT_NAMED 1913-11-11 12:00:00 NR 13.7332 143.620 main 1800 1800 __________P___ -1 13.7332 143.620 2 9 296
1913314N12147 1913 60 WP MM NOT_NAMED 1913-11-11 15:00:00 NR 13.9332 143.205 main 1821 1821 __________P___ -1 13.9332 143.205 2 9 297
1913314N12147 1913 60 WP MM NOT_NAMED 1913-11-11 18:00:00 NR 14.1332 142.804 main 1830 1830 __________P___ -1 14.1332 142.804 2 9 298
1913314N12147 1913 60 WP MM NOT_NAMED 1913-11-11 21:00:00 NR 14.3333 142.422 main 1837 1830 __________P___ -1 14.3333 142.422 2 8 299
1913314N12147 1913 60 WP MM NOT_NAMED 1913-11-11 22:00:00 NR 14.4000 142.300 main 1830 1811 __________O___ -1 14.4000 142.300 2 8 300
1913314N12147 1913 60 WP MM NOT_NAMED 1913-11-12 00:00:00 NR 14.5305 142.066 main 1811 1773 __________P___ -1 14.5305 142.066 2 8 301
1913314N12147 1913 60 WP MM NOT_NAMED 1913-11-12 03:00:00 NR 14.7263 141.734 main 1773 1745 __________P___ -1 14.7263 141.734 2 7 302
1913314N12147 1913 60 WP MM NOT_NAMED 1913-11-12 06:00:00 NR 14.9251 141.417 main 1745 1717 __________P___ -1 14.9251 141.417 2 7 304
1913314N12147 1913 60 WP MM NOT_NAMED 1913-11-12 09:00:00 NR 15.1299 141.105 main 1717 1708 __________P___ -1 15.1299 141.105 2 7 304
1913314N12147 1913 60 WP MM NOT_NAMED 1913-11-12 10:00:00 NR 15.2000 141.000 main 1708 1688 __________O___ -1 15.2000 141.000 2 8 304
1913314N12147 1913 60 WP MM NOT_NAMED 1913-11-12 12:00:00 NR 15.3416 140.778 main 1688 1653 __________P___ -1 15.3416 140.778 2 8 304
1913314N12147 1913 60 WP MM NOT_NAMED 1913-11-12 15:00:00 NR 15.5604 140.445 main 1653 1626 __________P___ -1 15.5604 140.445 2 8 305
1913314N12147 1913 60 WP MM NOT_NAMED 1913-11-12 18:00:00 NR 15.7866 140.117 main 1626 1599 __________P___ -1 15.7866 140.117 2 8 307
1913314N12147 1913 60 WP MM NOT_NAMED 1913-11-12 21:00:00 NR 16.0204 139.802 main 1599 1592 __________P___ -1 16.0204 139.802 2 8 308
1913314N12147 1913 60 WP MM NOT_NAMED 1913-11-12 22:00:00 NR 16.1000 139.700 main 1592 1574 __________O___ -1 16.1000 139.700 2 7 309
1913314N12147 1913 60 WP MM NOT_NAMED 1913-11-13 00:00:00 NR 16.2529 139.505 main 1577 1552 __________P___ -1 16.2529 139.505 2 7 310
1913314N12147 1913 60 WP MM NOT_NAMED 1913-11-13 03:00:00 NR 16.4886 139.225 main 1552 1538 __________P___ -1 16.4886 139.225 2 7 313
1913314N12147 1913 60 WP MM NOT_NAMED 1913-11-13 06:00:00 NR 16.7373 138.955 main 1538 1514 __________P___ -1 16.7373 138.955 2 7 315
1913314N12147 1913 60 WP MM NOT_NAMED 1913-11-13 09:00:00 NR 17.0053 138.689 main 1518 1512 __________P___ -1 17.0053 138.689 2 7 317
1913314N12147 1913 60 WP MM NOT_NAMED 1913-11-13 10:00:00 NR 17.1000 138.600 main 1512 1499 __________O___ -1 17.1000 138.600 2 8 316
1913314N12147 1913 60 WP MM NOT_NAMED 1913-11-13 12:00:00 NR 17.2891 138.404 main 1499 1482 __________P___ -1 17.2891 138.404 2 8 316
1913314N12147 1913 60 WP MM NOT_NAMED 1913-11-13 15:00:00 NR 17.5914 138.109 main 1482 1466 __________P___ -1 17.5914 138.109 2 8 319
1913314N12147 1913 60 WP MM NOT_NAMED 1913-11-13 18:00:00 NR 17.9189 137.827 main 1466 1461 __________P___ -1 17.9189 137.827 2 9 323
1913314N12147 1913 60 WP MM NOT_NAMED 1913-11-13 21:00:00 NR 18.2746 137.575 main 1466 1456 __________P___ -1 18.2746 137.575 2 9 327
1913314N12147 1913 60 WP MM NOT_NAMED 1913-11-13 22:00:00 NR 18.4000 137.500 main 1461 1457 __________O___ -1 18.4000 137.500 2 9 331
1913314N12147 1913 60 WP MM NOT_NAMED 1913-11-14 00:00:00 NR 18.6473 137.353 main 1462 1458 __________P___ -1 18.6473 137.353 2 9 334
1913314N12147 1913 60 WP MM NOT_NAMED 1913-11-14 03:00:00 NR 19.0433 137.164 main 1465 1431 __________P___ -1 19.0433 137.164 2 9 339
1913314N12147 1913 60 WP MM NOT_NAMED 1913-11-14 06:00:00 NR 19.4720 137.018 main 1431 1386 __________P___ -1 19.4720 137.018 2 9 345
1913314N12147 1913 60 WP MM NOT_NAMED 1913-11-14 09:00:00 NR 19.9366 136.921 main 1386 1366 __________P___ -1 19.9366 136.921 2 10 350
1913314N12147 1913 60 WP MM NOT_NAMED 1913-11-14 10:00:00 NR 20.1000 136.900 main 1366 1326 __________O___ -1 20.1000 136.900 2 11 354
1913314N12147 1913 60 WP MM NOT_NAMED 1913-11-14 12:00:00 NR 20.4590 136.863 main 1326 1276 __________P___ -1 20.4590 136.863 2 11 358
1913314N12147 1913 60 WP MM NOT_NAMED 1913-11-14 15:00:00 NR 21.0296 136.852 main 1276 1217 __________P___ -1 21.0296 136.852 2 12 0
1913314N12147 1913 60 WP MM NOT_NAMED 1913-11-14 18:00:00 NR 21.6026 136.889 main 1217 1174 __________P___ -1 21.6026 136.889 2 11 5
1913314N12147 1913 60 WP MM NOT_NAMED 1913-11-14 21:00:00 NR 22.1373 136.966 main 1174 1155 __________P___ -1 22.1373 136.966 2 11 9
1913314N12147 1913 60 WP MM NOT_NAMED 1913-11-14 22:00:00 NR 22.3000 137.000 main 1155 1132 __________O___ -1 22.3000 137.000 2 9 12
1913314N12147 1913 60 WP MM NOT_NAMED 1913-11-15 00:00:00 NR 22.5895 137.071 main 1132 1098 __________P___ -1 22.5895 137.071 2 8 16
1913314N12147 1913 60 WP MM NOT_NAMED 1913-11-15 03:00:00 NR 22.9735 137.210 main 1098 1075 __________P___ -1 22.9735 137.210 2 8 21
1913314N12147 1913 60 WP MM NOT_NAMED 1913-11-15 06:00:00 NR 23.3084 137.373 main 1080 1057 __________P___ -1 23.3084 137.373 2 7 26
1913314N12147 1913 60 WP MM NOT_NAMED 1913-11-15 09:00:00 NR 23.6066 137.544 main 1057 1054 __________P___ -1 23.6066 137.544 2 7 28
1913314N12147 1913 60 WP MM NOT_NAMED 1913-11-15 10:00:00 NR 23.7000 137.600 main 1054 1041 __________O___ -1 23.7000 137.600 2 6 29
1913314N12147 1913 60 WP MM NOT_NAMED 1913-11-15 12:00:00 NR 23.8803 137.709 main 1041 1029 __________P___ -1 23.8803 137.709 2 6 29
1913314N12147 1913 60 WP MM NOT_NAMED 1913-11-15 15:00:00 NR 24.1372 137.863 main 1035 1014 __________P___ -1 24.1372 137.863 2 6 29
1913314N12147 1913 60 WP MM NOT_NAMED 1913-11-15 18:00:00 NR 24.3825 138.010 main 1014 1003 __________P___ -1 24.3825 138.010 2 6 29
1913314N12147 1913 60 WP MM NOT_NAMED 1913-11-15 21:00:00 NR 24.6211 138.153 main 1009 998 __________P___ -1 24.6211 138.153 2 5 28
1913314N12147 1913 60 WP MM NOT_NAMED 1913-11-15 22:00:00 NR 24.7000 138.200 main 998 __________O___ -1 24.7000 138.200 2 5 27

デジタル台風データ・検索

IBTrACS Databaseについて

本データベースは、米国NOAAが公開する1842年以降の世界の熱帯低気圧のベストトラックデータアーカイブInternational Best Track Archive for Climate Stewardship (IBTrACS)を、ウェブで閲覧しやすい形式に変換したものです。

最終更新日:2021-10-25